createdAt,value
2023-02-12T00:00:32.261Z,57.93
2023-02-12T00:03:55.216Z,65.21
2023-02-12T00:06:58.174Z,66.05
2023-02-12T00:10:01.386Z,65.05
2023-02-12T00:13:07.017Z,66.09
2023-02-12T00:16:13.126Z,67.11
2023-02-12T00:19:16.093Z,66.59
2023-02-12T00:22:19.093Z,66.96
2023-02-12T00:25:22.049Z,66.30
2023-02-12T00:28:25.024Z,65.15
2023-02-12T00:31:30.375Z,65.53
2023-02-12T00:34:33.427Z,65.55
2023-02-12T00:37:37.677Z,66.10
2023-02-12T00:40:40.664Z,65.62
2023-02-12T00:43:43.653Z,65.02
2023-02-12T00:46:46.575Z,65.25
2023-02-12T00:49:50.179Z,65.25
2023-02-12T00:52:53.305Z,64.87
2023-02-12T00:55:57.416Z,63.07
2023-02-12T00:59:00.573Z,61.80
2023-02-12T01:02:04.125Z,60.60
2023-02-12T01:05:07.326Z,62.05
2023-02-12T01:08:16.506Z,59.99
2023-02-12T01:11:19.888Z,61.10
2023-02-12T01:14:22.822Z,65.80
2023-02-12T01:17:26.034Z,64.61
2023-02-12T01:20:28.891Z,61.68
2023-02-12T01:23:31.973Z,61.36
2023-02-12T01:26:34.996Z,61.82
2023-02-12T01:29:39.449Z,60.12
2023-02-12T01:32:42.551Z,60.04
2023-02-12T01:35:45.575Z,60.36
2023-02-12T01:38:49.320Z,59.52
2023-02-12T01:41:52.368Z,61.80
2023-02-12T01:45:36.631Z,65.67
2023-02-12T01:48:44.572Z,65.67
2023-02-12T01:51:49.915Z,65.37
2023-02-12T01:54:57.308Z,66.63
2023-02-12T01:58:00.294Z,65.66
2023-02-12T02:01:06.633Z,64.13
2023-02-12T02:04:14.765Z,62.59
2023-02-12T02:07:17.812Z,63.54
2023-02-12T02:10:20.774Z,64.59
2023-02-12T02:13:42.874Z,66.28
2023-02-12T02:16:57.520Z,67.14
2023-02-12T02:20:18.822Z,67.81
2023-02-12T02:23:57.003Z,67.15
2023-02-12T02:27:12.737Z,67.01
2023-02-12T02:30:29.946Z,68.78
2023-02-12T02:34:02.130Z,70.20
2023-02-12T02:37:07.921Z,69.76
2023-02-12T02:40:13.854Z,68.26
2023-02-12T02:43:22.729Z,67.38
2023-02-12T02:46:40.792Z,66.66
2023-02-12T02:49:53.725Z,67.50
2023-02-12T02:53:08.138Z,68.33
2023-02-12T02:56:16.621Z,66.81
2023-02-12T02:59:35.698Z,66.57
2023-02-12T03:02:43.860Z,66.51
2023-02-12T03:05:50.878Z,67.67
2023-02-12T03:09:05.441Z,68.06
2023-02-12T03:12:33.589Z,68.77
2023-02-12T03:15:42.523Z,68.64
2023-02-12T03:18:54.218Z,68.08
2023-02-12T03:22:14.456Z,68.20
2023-02-12T03:25:47.958Z,68.88
2023-02-12T03:28:51.486Z,67.34
2023-02-12T03:32:05.951Z,66.57
2023-02-12T03:35:25.521Z,65.80
2023-02-12T03:38:39.182Z,65.98
2023-02-12T03:41:50.322Z,65.28
2023-02-12T03:45:02.934Z,64.61
2023-02-12T03:48:08.841Z,65.15
2023-02-12T03:51:11.813Z,66.17
2023-02-12T03:54:18.868Z,66.57
2023-02-12T03:57:31.481Z,68.09
2023-02-12T04:00:34.683Z,67.15
2023-02-12T04:03:38.110Z,66.29
2023-02-12T04:06:41.704Z,65.98
2023-02-12T04:09:44.933Z,66.56
2023-02-12T04:13:06.572Z,66.49
2023-02-12T04:16:46.638Z,65.31
2023-02-12T04:20:23.751Z,65.29
2023-02-12T04:23:47.702Z,64.75
2023-02-12T04:27:36.154Z,63.86
2023-02-12T04:30:48.731Z,67.36
2023-02-12T04:34:07.390Z,68.92
2023-02-12T04:37:35.132Z,70.41
2023-02-12T04:40:42.900Z,69.94
2023-02-12T04:43:46.148Z,70.32
2023-02-12T04:46:49.506Z,69.47
2023-02-12T04:49:52.525Z,68.77
2023-02-12T04:52:55.441Z,66.56
2023-02-12T04:55:58.633Z,66.79
2023-02-12T04:59:01.881Z,67.55
2023-02-12T05:02:04.826Z,68.93
2023-02-12T05:05:08.174Z,68.87
2023-02-12T05:08:11.359Z,69.27
2023-02-12T05:11:14.398Z,69.35
2023-02-12T05:14:17.507Z,70.05
2023-02-12T05:17:23.330Z,69.96
2023-02-12T05:20:26.424Z,69.63
2023-02-12T05:23:31.499Z,69.85
2023-02-12T05:26:34.586Z,70.34
2023-02-12T05:29:37.593Z,70.50
2023-02-12T05:32:40.550Z,70.79
2023-02-12T05:35:44.398Z,70.98
2023-02-12T05:38:48.017Z,71.23
2023-02-12T05:41:50.913Z,71.71
2023-02-12T05:44:54.003Z,71.89
2023-02-12T05:47:57.329Z,72.73
2023-02-12T05:51:08.407Z,70.96
2023-02-12T05:54:11.717Z,68.19
2023-02-12T05:57:14.629Z,65.33
2023-02-12T06:00:17.849Z,63.05
2023-02-12T06:03:20.831Z,59.75
2023-02-12T06:06:26.875Z,60.19
2023-02-12T06:09:30.153Z,65.66
2023-02-12T06:12:33.137Z,67.56
2023-02-12T06:15:39.247Z,66.46
2023-02-12T06:18:42.233Z,66.91
2023-02-12T06:21:45.847Z,67.37
2023-02-12T06:24:48.724Z,67.84
2023-02-12T06:27:51.603Z,68.11
2023-02-12T06:30:54.672Z,68.62
2023-02-12T06:34:00.847Z,69.44
2023-02-12T06:37:03.778Z,69.95
2023-02-12T06:40:07.633Z,70.35
2023-02-12T06:43:10.624Z,70.36
2023-02-12T06:46:14.898Z,70.58
2023-02-12T06:49:18.097Z,70.90
2023-02-12T06:52:21.751Z,70.83
2023-02-12T06:55:24.787Z,70.87
2023-02-12T06:58:28.234Z,70.86
2023-02-12T07:01:31.728Z,70.68
2023-02-12T07:04:34.761Z,70.14
2023-02-12T07:07:37.736Z,69.52
2023-02-12T07:10:40.846Z,69.97
2023-02-12T07:13:45.643Z,70.11
2023-02-12T07:16:48.656Z,70.30
2023-02-12T07:19:51.558Z,70.39
2023-02-12T07:22:54.611Z,70.28
2023-02-12T07:26:03.664Z,70.01
2023-02-12T07:29:07.178Z,69.91
2023-02-12T07:32:10.216Z,70.36
2023-02-12T07:35:13.297Z,69.84
2023-02-12T07:38:16.333Z,69.46
2023-02-12T07:41:25.991Z,70.14
2023-02-12T07:44:29.580Z,70.70
2023-02-12T07:47:38.597Z,70.93
2023-02-12T07:50:41.565Z,71.06
2023-02-12T07:53:44.450Z,71.47
2023-02-12T07:56:47.670Z,70.04
2023-02-12T07:59:51.167Z,62.85
2023-02-12T08:02:54.475Z,59.96
2023-02-12T08:05:58.127Z,58.79
2023-02-12T08:09:03.856Z,61.18
2023-02-12T08:12:07.153Z,67.44
2023-02-12T08:15:10.458Z,66.62
2023-02-12T08:18:13.461Z,61.69
2023-02-12T08:21:18.955Z,57.47
2023-02-12T08:24:22.587Z,60.23
2023-02-12T08:27:25.534Z,64.72
2023-02-12T08:30:28.548Z,62.21
2023-02-12T08:33:31.580Z,59.80
2023-02-12T08:36:40.284Z,58.17
2023-02-12T08:39:43.451Z,62.76
2023-02-12T08:42:46.436Z,65.10
2023-02-12T08:45:49.470Z,64.53
2023-02-12T08:48:55.909Z,64.13
2023-02-12T08:52:01.976Z,62.13
2023-02-12T08:55:05.244Z,60.48
2023-02-12T08:58:08.295Z,59.15
2023-02-12T09:01:14.483Z,62.82
2023-02-12T09:04:21.632Z,64.83
2023-02-12T09:07:24.673Z,62.20
2023-02-12T09:10:27.664Z,58.86
2023-02-12T09:13:30.820Z,60.82
2023-02-12T09:16:36.267Z,64.72
2023-02-12T09:19:39.459Z,64.32
2023-02-12T09:22:42.622Z,62.88
2023-02-12T09:25:46.382Z,60.92
2023-02-12T09:28:51.237Z,59.40
2023-02-12T09:31:54.403Z,58.79
2023-02-12T09:34:57.524Z,61.35
2023-02-12T09:38:00.468Z,64.20
2023-02-12T09:41:40.459Z,62.78
2023-02-12T09:45:12.540Z,59.76
2023-02-12T09:48:54.102Z,59.75
2023-02-12T09:51:58.202Z,60.76
2023-02-12T09:55:01.480Z,61.01
2023-02-12T09:58:14.383Z,61.59
2023-02-12T10:01:19.966Z,60.40
2023-02-12T10:04:24.740Z,61.26
2023-02-12T10:07:38.665Z,62.11
2023-02-12T10:10:54.093Z,63.48
2023-02-12T10:14:15.297Z,64.54
2023-02-12T10:17:21.172Z,63.38
2023-02-12T10:20:33.721Z,60.41
2023-02-12T10:23:52.568Z,60.18
2023-02-12T10:27:00.684Z,59.79
2023-02-12T10:30:27.445Z,58.24
2023-02-12T10:33:39.135Z,59.68
2023-02-12T10:36:44.518Z,62.26
2023-02-12T10:39:56.652Z,62.67
2023-02-12T10:43:00.597Z,62.63
2023-02-12T10:46:03.634Z,62.39
2023-02-12T10:49:11.142Z,53.96
2023-02-12T10:52:36.126Z,54.41
2023-02-12T10:55:39.196Z,57.64
2023-02-12T10:58:52.523Z,59.74
2023-02-12T11:01:55.514Z,60.77
2023-02-12T11:05:01.405Z,63.10
2023-02-12T11:08:05.617Z,60.33
2023-02-12T11:11:21.741Z,56.49
2023-02-12T11:14:24.859Z,57.73
2023-02-12T11:17:35.253Z,60.25
2023-02-12T11:20:50.150Z,60.94
2023-02-12T11:23:53.228Z,61.10
2023-02-12T11:27:28.867Z,62.39
2023-02-12T11:30:32.739Z,64.72
2023-02-12T11:33:37.307Z,56.13
2023-02-12T11:36:49.709Z,54.53
2023-02-12T11:39:52.660Z,57.95
2023-02-12T11:43:02.377Z,58.50
2023-02-12T11:46:08.775Z,59.25
2023-02-12T11:49:44.227Z,60.73
2023-02-12T11:52:51.931Z,61.84
2023-02-12T11:56:02.039Z,61.06
2023-02-12T11:59:22.434Z,61.56
2023-02-12T12:02:33.674Z,67.11
2023-02-12T12:05:42.628Z,62.37
2023-02-12T12:08:54.632Z,53.19
2023-02-12T12:12:27.358Z,52.71
2023-02-12T12:15:53.128Z,54.39
2023-02-12T12:19:26.760Z,54.90
2023-02-12T12:23:03.559Z,56.30
2023-02-12T12:26:24.361Z,57.42
2023-02-12T12:29:42.076Z,57.06
2023-02-12T12:32:50.583Z,58.31
2023-02-12T12:36:14.863Z,61.57
2023-02-12T12:39:29.845Z,61.09
2023-02-12T12:42:32.765Z,55.77
2023-02-12T12:45:58.183Z,53.96
2023-02-12T12:49:28.217Z,56.16
2023-02-12T12:52:57.154Z,55.64
2023-02-12T12:56:11.301Z,56.33
2023-02-12T12:59:35.844Z,57.47
2023-02-12T13:03:14.257Z,58.54
2023-02-12T13:06:46.083Z,59.58
2023-02-12T13:10:04.308Z,60.78
2023-02-12T13:13:21.534Z,64.98
2023-02-12T13:16:38.296Z,61.41
2023-02-12T13:19:55.429Z,58.22
2023-02-12T13:23:12.093Z,58.70
2023-02-12T13:26:37.709Z,60.19
2023-02-12T13:29:51.614Z,61.08
2023-02-12T13:33:22.148Z,64.24
2023-02-12T13:36:25.424Z,64.02
2023-02-12T13:39:34.333Z,61.67
2023-02-12T13:42:49.846Z,59.85
2023-02-12T13:46:05.213Z,60.45
2023-02-12T13:49:14.373Z,61.03
2023-02-12T13:52:46.565Z,61.63
2023-02-12T13:56:20.151Z,62.10
2023-02-12T13:59:32.355Z,62.55
2023-02-12T14:02:37.904Z,62.58
2023-02-12T14:05:41.203Z,63.46
2023-02-12T14:08:47.601Z,63.14
2023-02-12T14:11:53.759Z,62.87
2023-02-12T14:15:04.232Z,62.69
2023-02-12T14:18:37.159Z,62.41
2023-02-12T14:21:40.898Z,62.22
2023-02-12T14:24:51.206Z,62.30
2023-02-12T14:27:57.267Z,61.92
2023-02-12T14:31:18.742Z,62.05
2023-02-12T14:34:21.920Z,62.18
2023-02-12T14:37:37.748Z,62.59
2023-02-12T14:40:49.219Z,62.58
2023-02-12T14:44:01.225Z,62.46
2023-02-12T14:47:14.442Z,62.35
2023-02-12T14:50:23.356Z,62.59
2023-02-12T14:53:32.600Z,62.51
2023-02-12T14:56:46.061Z,63.19
2023-02-12T14:59:50.195Z,64.37
2023-02-12T15:03:05.356Z,62.59
2023-02-12T15:06:16.370Z,54.64
2023-02-12T15:09:32.213Z,54.47
2023-02-12T15:12:43.064Z,56.73
2023-02-12T15:16:03.674Z,58.65
2023-02-12T15:19:39.360Z,58.62
2023-02-12T15:22:43.237Z,61.39
2023-02-12T15:25:46.151Z,66.36
2023-02-12T15:28:54.373Z,66.78
2023-02-12T15:32:00.983Z,64.10
2023-02-12T15:35:09.006Z,61.72
2023-02-12T15:38:33.533Z,55.40
2023-02-12T15:41:40.003Z,55.55
2023-02-12T15:45:17.387Z,57.40
2023-02-12T15:48:23.404Z,59.52
2023-02-12T15:51:42.398Z,61.25
2023-02-12T15:54:48.860Z,65.18
2023-02-12T15:58:01.149Z,64.94
2023-02-12T16:01:06.041Z,65.74
2023-02-12T16:04:09.201Z,66.43
2023-02-12T16:07:13.611Z,65.65
2023-02-12T16:10:19.332Z,66.07
2023-02-12T16:13:35.125Z,68.69
2023-02-12T16:16:49.586Z,68.95
2023-02-12T16:20:02.618Z,72.07
2023-02-12T16:23:07.417Z,69.46
2023-02-12T16:26:18.300Z,64.82
2023-02-12T16:29:24.615Z,64.06
2023-02-12T16:32:29.511Z,63.34
2023-02-12T16:35:35.592Z,63.20
2023-02-12T16:38:47.056Z,63.16
2023-02-12T16:41:57.332Z,63.34
2023-02-12T16:45:00.517Z,62.42
2023-02-12T16:48:12.836Z,61.72
2023-02-12T16:51:34.774Z,61.54
2023-02-12T16:54:37.770Z,61.30
2023-02-12T16:57:40.748Z,61.16
2023-02-12T17:00:44.761Z,59.30
2023-02-12T17:03:50.627Z,58.16
2023-02-12T17:06:53.797Z,59.82
2023-02-12T17:09:56.773Z,61.79
2023-02-12T17:12:59.951Z,66.56
2023-02-12T17:16:03.475Z,68.25
2023-02-12T17:19:07.100Z,66.74
2023-02-12T17:22:23.450Z,65.36
2023-02-12T17:25:26.728Z,64.03
2023-02-12T17:28:29.816Z,63.49
2023-02-12T17:31:34.428Z,63.79
2023-02-12T17:34:48.073Z,64.36
2023-02-12T17:37:52.017Z,65.04
2023-02-12T17:40:55.230Z,65.72
2023-02-12T17:43:58.502Z,65.87
2023-02-12T17:47:01.403Z,65.70
2023-02-12T17:50:04.989Z,65.22
2023-02-12T17:53:09.297Z,65.24
2023-02-12T17:56:14.319Z,64.89
2023-02-12T17:59:17.162Z,64.66
2023-02-12T18:02:19.992Z,65.58
2023-02-12T18:05:25.248Z,65.71
2023-02-12T18:08:28.812Z,66.12
2023-02-12T18:11:33.340Z,67.01
2023-02-12T18:14:36.414Z,66.49
2023-02-12T18:17:43.033Z,65.99
2023-02-12T18:20:45.983Z,66.23
2023-02-12T18:23:49.242Z,66.20
2023-02-12T18:26:52.199Z,65.51
2023-02-12T18:29:57.045Z,64.68
2023-02-12T18:32:59.954Z,64.64
2023-02-12T18:36:06.230Z,64.81
2023-02-12T18:39:09.447Z,64.67
2023-02-12T18:42:14.433Z,64.19
2023-02-12T18:45:19.309Z,65.86
2023-02-12T18:48:22.429Z,67.16
2023-02-12T18:51:28.612Z,66.85
2023-02-12T18:54:35.106Z,66.41
2023-02-12T18:58:58.591Z,66.58
2023-02-12T19:02:39.387Z,65.63
2023-02-12T19:05:44.984Z,66.09
2023-02-12T19:08:51.225Z,65.92
2023-02-12T19:12:19.443Z,66.30
2023-02-12T19:15:47.056Z,66.81
2023-02-12T19:19:38.669Z,66.52
2023-02-12T19:23:03.685Z,67.05
2023-02-12T19:26:12.073Z,67.02
2023-02-12T19:29:16.305Z,67.57
2023-02-12T19:32:22.817Z,67.63
2023-02-12T19:35:42.697Z,68.03
2023-02-12T19:39:12.386Z,67.90
2023-02-12T19:43:00.615Z,66.81
2023-02-12T19:46:28.243Z,66.46
2023-02-12T19:50:15.966Z,66.64
2023-02-12T19:54:07.423Z,69.61
2023-02-12T19:57:21.386Z,69.37
2023-02-12T20:00:44.806Z,68.03
2023-02-12T20:03:52.488Z,67.26
2023-02-12T20:07:36.934Z,66.94
2023-02-12T20:11:01.726Z,66.84
2023-02-12T20:14:33.615Z,67.56
2023-02-12T20:18:01.232Z,67.58
2023-02-12T20:21:46.692Z,67.59
2023-02-12T20:24:54.661Z,68.46
2023-02-12T20:28:24.828Z,71.89
2023-02-12T20:31:32.912Z,71.87
2023-02-12T20:34:50.150Z,70.88
2023-02-12T20:38:21.426Z,67.66
2023-02-12T20:41:57.637Z,68.14
2023-02-12T20:45:26.709Z,69.97
2023-02-12T20:48:30.061Z,71.48
2023-02-12T20:52:32.976Z,72.81
2023-02-12T20:56:34.819Z,72.88
2023-02-12T20:59:45.494Z,73.98
2023-02-12T21:02:49.096Z,78.19
2023-02-12T21:06:12.842Z,78.63
2023-02-12T21:09:17.131Z,77.17
2023-02-12T21:12:27.703Z,76.46
2023-02-12T21:15:30.970Z,78.36
2023-02-12T21:18:35.068Z,74.62
2023-02-12T21:21:41.110Z,72.00
2023-02-12T21:24:45.115Z,68.96
2023-02-12T21:27:48.559Z,64.81
2023-02-12T21:30:52.659Z,62.59
2023-02-12T21:33:58.556Z,62.52
2023-02-12T21:37:05.204Z,60.56
2023-02-12T21:40:09.272Z,59.11
2023-02-12T21:43:12.487Z,58.12
2023-02-12T21:46:16.428Z,59.88
2023-02-12T21:49:28.370Z,65.24
2023-02-12T21:52:31.894Z,66.40
2023-02-12T21:55:40.532Z,65.16
2023-02-12T21:58:44.829Z,63.11
2023-02-12T22:01:51.104Z,61.88
2023-02-12T22:04:55.019Z,63.92
2023-02-12T22:07:58.284Z,65.33
2023-02-12T22:11:06.730Z,65.50
2023-02-12T22:14:14.648Z,66.16
2023-02-12T22:17:18.078Z,65.43
2023-02-12T22:20:21.526Z,67.17
2023-02-12T22:23:26.880Z,67.63
2023-02-12T22:26:31.854Z,64.00
2023-02-12T22:29:43.355Z,63.85
2023-02-12T22:32:47.404Z,65.21
2023-02-12T22:35:51.713Z,66.32
2023-02-12T22:38:57.743Z,65.88
2023-02-12T22:42:00.766Z,66.91
2023-02-12T22:45:04.606Z,66.69
2023-02-12T22:48:07.589Z,66.88
2023-02-12T22:51:15.035Z,66.10
2023-02-12T22:54:19.146Z,66.19
2023-02-12T22:57:22.192Z,69.14
2023-02-12T23:00:25.510Z,66.67
2023-02-12T23:03:31.831Z,65.68
2023-02-12T23:06:34.953Z,65.06
2023-02-12T23:09:38.603Z,61.82
2023-02-12T23:12:41.636Z,59.63
2023-02-12T23:15:44.791Z,57.38
2023-02-12T23:18:48.566Z,58.24
2023-02-12T23:21:51.810Z,60.60
2023-02-12T23:24:54.819Z,61.73
2023-02-12T23:27:58.633Z,67.35
2023-02-12T23:31:02.489Z,66.36
2023-02-12T23:34:05.856Z,67.58
2023-02-12T23:37:08.916Z,68.26
2023-02-12T23:40:13.247Z,68.55
2023-02-12T23:43:16.722Z,70.37
2023-02-12T23:46:19.926Z,68.17
2023-02-12T23:49:23.100Z,67.57
2023-02-12T23:52:26.288Z,68.82
2023-02-12T23:55:29.439Z,70.79
2023-02-12T23:58:32.520Z,73.00
